Time;durP1;ratioP1;P1;durP2;ratioP2;P2;SDS_P1;SDS_P2;PMS_P1;PMS_P2;Temp;Humidity;BMP_temperature;BMP_pressure;BME280_temperature;BME280_humidity;BME280_pressure;Samples;Min_cycle;Max_cycle;Signal;HPM_P1;HPM_P2
2022/03/10 00:01:47;;;;;;;;;;;;;;;0.05;58.05;95318.72;5136867;27;1016;-49
2022/03/10 00:04:13;;;;;;;;;;;;;;;0.02;58.20;95316.28;5137122;27;1027;-48
2022/03/10 00:06:39;;;;;;;;;;;;;;;0.04;58.65;95321.44;5137028;27;1012;-48
2022/03/10 00:09:05;;;;;;;;;;;;;;;0.02;59.11;95325.94;5136971;27;1039;-48
2022/03/10 00:11:31;;;;;;;;;;;;;;;-0.01;58.39;95319.09;5136757;27;1045;-48
2022/03/10 00:13:58;;;;;;;;;;;;;;;-0.08;57.88;95313.34;5136609;27;1103;-48
2022/03/10 00:16:24;;;;;;;;;;;;;;;-0.06;58.70;95316.75;5135608;27;1906;-48
2022/03/10 00:18:50;;;;;;;;;;;;;;;0.04;58.31;95317.03;5136850;27;1047;-49
2022/03/10 00:21:17;;;;;;;;;;;;;;;0.05;58.74;95310.00;5136617;27;1008;-49
2022/03/10 00:23:43;;;;;;;;;;;;;;;0.04;58.59;95322.31;5136808;27;994;-48
2022/03/10 00:26:09;;;;;;;;;;;;;;;-0.11;58.60;95307.47;5136477;27;1048;-48
2022/03/10 00:28:35;;;;;;;;;;;;;;;-0.13;59.20;95312.81;5136872;27;1012;-48
2022/03/10 00:31:01;;;;;;;;;;;;;;;-0.13;59.24;95314.56;5136339;27;1929;-48
2022/03/10 00:33:27;;;;;;;;;;;;;;;-0.27;59.59;95312.78;5135403;27;1011;-48
2022/03/10 00:35:53;;;;;;;;;;;;;;;-0.32;59.26;95314.81;5136082;27;1905;-48
2022/03/10 00:38:19;;;;;;;;;;;;;;;-0.32;60.03;95314.81;5136734;27;1020;-48
2022/03/10 00:40:45;;;;;;;;;;;;;;;-0.31;59.02;95312.09;5136111;27;1028;-48
2022/03/10 00:43:13;;;;;;;;;;;;;;;-0.24;59.30;95320.47;5136009;27;1047;-49
2022/03/10 00:45:39;;;;;;;;;;;;;;;-0.22;58.42;95306.31;5136388;27;959;-48
2022/03/10 00:48:06;;;;;;;;;;;;;;;-0.23;59.16;95301.13;5136336;27;964;-48
2022/03/10 00:50:32;;;;;;;;;;;;;;;-0.30;58.38;95302.47;5134961;27;1113;-49
2022/03/10 00:52:59;;;;;;;;;;;;;;;-0.33;58.80;95294.75;5115513;28;1095;-48
2022/03/10 00:55:25;;;;;;;;;;;;;;;-0.35;58.77;95296.63;5115343;28;1886;-48
2022/03/10 00:57:51;;;;;;;;;;;;;;;-0.36;59.54;95293.16;5115663;28;968;-48
2022/03/10 01:00:18;;;;;;;;;;;;;;;-0.45;60.80;95291.91;5115456;28;1095;-48
2022/03/10 01:02:44;;;;;;;;;;;;;;;-0.61;62.73;95289.34;5113800;28;1100;-48
2022/03/10 01:05:10;;;;;;;;;;;;;;;-0.60;62.18;95282.31;5115434;28;999;-48
2022/03/10 01:07:37;;;;;;;;;;;;;;;-0.61;60.23;95277.97;5115192;28;1055;-48
2022/03/10 01:10:04;;;;;;;;;;;;;;;-0.51;59.74;95279.16;5115090;28;1052;-48
2022/03/10 01:12:31;;;;;;;;;;;;;;;-0.45;59.55;95275.31;5114744;28;1032;-48
2022/03/10 01:14:57;;;;;;;;;;;;;;;-0.62;60.68;95276.31;5114896;28;1964;-48
2022/03/10 01:17:23;;;;;;;;;;;;;;;-0.58;59.64;95277.81;5114933;28;953;-48
2022/03/10 01:19:49;;;;;;;;;;;;;;;-0.51;60.13;95267.78;5114961;28;1095;-48
2022/03/10 01:22:15;;;;;;;;;;;;;;;-0.63;59.90;95272.81;5114740;28;1080;-48
2022/03/10 01:24:42;;;;;;;;;;;;;;;-0.80;60.58;95271.22;5115170;28;1019;-48
2022/03/10 01:27:08;;;;;;;;;;;;;;;-0.80;61.44;95268.59;5113308;28;1043;-48
2022/03/10 01:29:34;;;;;;;;;;;;;;;-0.74;62.07;95267.38;5113625;28;1020;-48
2022/03/10 01:32:00;;;;;;;;;;;;;;;-0.62;62.34;95271.06;5114621;28;972;-49
2022/03/10 01:34:27;;;;;;;;;;;;;;;-0.50;60.95;95269.47;5115010;28;1056;-48
2022/03/10 01:36:54;;;;;;;;;;;;;;;-0.49;60.76;95276.44;5114330;28;1992;-48
2022/03/10 01:39:20;;;;;;;;;;;;;;;-0.51;61.70;95271.28;5114646;28;953;-48
2022/03/10 01:41:46;;;;;;;;;;;;;;;-0.55;61.56;95274.16;5114110;28;1107;-48
2022/03/10 01:44:12;;;;;;;;;;;;;;;-0.47;61.50;95274.56;5114526;28;1114;-49
2022/03/10 01:46:38;;;;;;;;;;;;;;;-0.43;61.58;95270.81;5114550;28;993;-48
2022/03/10 01:49:05;;;;;;;;;;;;;;;-0.37;61.22;95272.22;5114411;28;1036;-48
2022/03/10 01:51:32;;;;;;;;;;;;;;;-0.42;61.13;95261.97;5123995;27;1165;-48
2022/03/10 01:53:59;;;;;;;;;;;;;;;-0.41;62.06;95272.41;5134862;27;996;-48
2022/03/10 01:56:25;;;;;;;;;;;;;;;-0.35;62.09;95278.22;5134713;27;1914;-48
2022/03/10 01:58:51;;;;;;;;;;;;;;;-0.40;62.45;95276.72;5134640;27;1023;-49
2022/03/10 02:01:18;;;;;;;;;;;;;;;-0.47;63.44;95283.28;5134998;27;1028;-48
2022/03/10 02:03:44;;;;;;;;;;;;;;;-0.55;63.31;95274.16;5134553;27;1044;-48
2022/03/10 02:06:10;;;;;;;;;;;;;;;-0.65;63.72;95265.97;5134745;27;1036;-48
2022/03/10 02:11:21;;;;;;;;;;;;;;;-0.83;64.47;95265.28;5134899;27;973;-48
2022/03/10 02:13:47;;;;;;;;;;;;;;;-0.91;64.13;95270.13;5133970;27;1102;-49
2022/03/10 02:18:59;;;;;;;;;;;;;;;-0.91;65.81;95263.09;5134620;27;967;-48
2022/03/10 02:21:26;;;;;;;;;;;;;;;-0.87;65.86;95267.25;5134837;27;1055;-48
2022/03/10 02:23:53;;;;;;;;;;;;;;;-0.91;66.26;95257.84;5134387;27;972;-48
2022/03/10 02:26:19;;;;;;;;;;;;;;;-0.87;66.89;95261.16;5134465;27;1275;-48
2022/03/10 02:28:45;;;;;;;;;;;;;;;-0.84;66.75;95263.56;5134176;27;1039;-48
2022/03/10 02:31:11;;;;;;;;;;;;;;;-0.71;66.54;95266.34;5134508;27;1035;-48
2022/03/10 02:33:37;;;;;;;;;;;;;;;-0.56;65.62;95267.22;5134094;27;1031;-48
2022/03/10 02:36:07;;;;;;;;;;;;;;;-0.51;65.78;95265.16;5134056;27;1980;-48
2022/03/10 02:38:33;;;;;;;;;;;;;;;-0.33;65.88;95269.31;5133597;27;1102;-48
2022/03/10 02:40:59;;;;;;;;;;;;;;;-0.12;64.57;95284.72;5134169;27;1011;-48
2022/03/10 02:43:25;;;;;;;;;;;;;;;-0.09;64.94;95287.19;5134183;27;1020;-48
2022/03/10 02:45:51;;;;;;;;;;;;;;;-0.22;64.99;95266.88;5134071;28;1047;-48
2022/03/10 02:48:17;;;;;;;;;;;;;;;-0.30;65.31;95270.94;5134193;28;953;-48
2022/03/10 02:50:45;;;;;;;;;;;;;;;-0.28;65.50;95277.78;5131351;27;1168;-48
2022/03/10 02:53:11;;;;;;;;;;;;;;;-0.29;65.51;95269.97;5113451;28;1020;-48
2022/03/10 02:55:38;;;;;;;;;;;;;;;-0.18;64.17;95279.84;5113526;28;1909;-48
2022/03/10 02:58:05;;;;;;;;;;;;;;;-0.12;64.19;95274.22;5113443;28;1047;-48
2022/03/10 03:00:31;;;;;;;;;;;;;;;-0.12;64.29;95280.31;5113654;28;1052;-47
2022/03/10 03:02:57;;;;;;;;;;;;;;;-0.23;63.89;95280.97;5113187;28;982;-48
2022/03/10 03:05:23;;;;;;;;;;;;;;;-0.25;63.95;95280.22;5113506;28;1044;-48
2022/03/10 03:07:49;;;;;;;;;;;;;;;-0.23;63.28;95286.22;5113223;28;1027;-48
2022/03/10 03:10:15;;;;;;;;;;;;;;;-0.28;63.78;95290.91;5113616;28;1023;-48
2022/03/10 03:12:46;;;;;;;;;;;;;;;-0.31;63.58;95287.63;5113138;28;1044;-48
2022/03/10 03:15:12;;;;;;;;;;;;;;;-0.33;63.46;95281.63;5113110;28;1913;-48
2022/03/10 03:17:38;;;;;;;;;;;;;;;-0.29;63.51;95283.94;5113210;28;948;-47
2022/03/10 03:20:07;;;;;;;;;;;;;;;-0.24;63.17;95281.06;5113416;28;988;-48
2022/03/10 03:22:33;;;;;;;;;;;;;;;-0.26;63.17;95283.78;5113669;28;961;-48
2022/03/10 03:24:59;;;;;;;;;;;;;;;-0.30;63.26;95269.13;5113227;28;1015;-48
2022/03/10 03:27:25;;;;;;;;;;;;;;;-0.37;63.74;95273.06;5113602;28;1039;-48
2022/03/10 03:29:51;;;;;;;;;;;;;;;-0.44;63.95;95284.88;5113068;28;984;-48
2022/03/10 03:32:17;;;;;;;;;;;;;;;-0.33;63.11;95286.88;5113150;28;964;-49
2022/03/10 03:34:43;;;;;;;;;;;;;;;-0.13;62.92;95289.16;5113321;28;972;-48
2022/03/10 03:37:09;;;;;;;;;;;;;;;-0.15;63.23;95291.03;5113434;28;964;-48
2022/03/10 03:39:35;;;;;;;;;;;;;;;-0.18;62.69;95287.72;5113328;28;1040;-48
2022/03/10 03:42:01;;;;;;;;;;;;;;;-0.05;62.67;95297.41;5112998;28;984;-48
2022/03/10 03:44:27;;;;;;;;;;;;;;;-0.08;62.65;95296.75;5111851;28;1028;-48
2022/03/10 03:46:54;;;;;;;;;;;;;;;-0.17;63.30;95292.91;5113142;28;1062;-48
2022/03/10 03:49:20;;;;;;;;;;;;;;;-0.35;64.32;95297.47;5112892;28;1072;-48
2022/03/10 03:51:46;;;;;;;;;;;;;;;-0.41;64.68;95295.22;5127302;27;1160;-48
2022/03/10 03:54:12;;;;;;;;;;;;;;;-0.38;63.77;95283.66;5137086;27;1043;-48
2022/03/10 03:56:38;;;;;;;;;;;;;;;-0.44;64.11;95288.38;5137101;27;1974;-48
2022/03/10 03:59:04;;;;;;;;;;;;;;;-0.24;63.41;95304.72;5137267;27;1063;-48
2022/03/10 04:01:30;;;;;;;;;;;;;;;-0.27;63.58;95307.50;5137049;27;1139;-48
2022/03/10 04:03:56;;;;;;;;;;;;;;;-0.29;63.50;95304.13;5136803;27;1143;-48
2022/03/10 04:06:22;;;;;;;;;;;;;;;-0.21;63.05;95305.38;5137020;27;1024;-48
2022/03/10 04:08:48;;;;;;;;;;;;;;;-0.17;63.28;95305.19;5136929;27;969;-48
2022/03/10 04:11:15;;;;;;;;;;;;;;;-0.21;62.93;95317.66;5136978;27;1031;-48
2022/03/10 04:13:42;;;;;;;;;;;;;;;-0.33;63.81;95324.50;5136681;27;1087;-49
2022/03/10 04:16:08;;;;;;;;;;;;;;;-0.27;62.99;95316.22;5136587;27;1983;-48
2022/03/10 04:18:34;;;;;;;;;;;;;;;-0.23;62.89;95317.78;5136813;27;965;-48
2022/03/10 04:21:00;;;;;;;;;;;;;;;-0.30;63.04;95318.22;5136966;27;1032;-48
2022/03/10 04:23:26;;;;;;;;;;;;;;;-0.33;63.24;95316.59;5136647;27;1094;-48
2022/03/10 04:25:53;;;;;;;;;;;;;;;-0.28;62.63;95327.69;5136436;27;1028;-48
2022/03/10 04:28:19;;;;;;;;;;;;;;;-0.30;63.02;95320.84;5136743;27;1051;-48
2022/03/10 04:30:46;;;;;;;;;;;;;;;-0.33;62.97;95324.50;5136184;27;1044;-48
2022/03/10 04:33:12;;;;;;;;;;;;;;;-0.21;62.46;95330.78;5136783;27;1023;-48
2022/03/10 04:35:38;;;;;;;;;;;;;;;-0.24;62.99;95331.00;5136564;27;1914;-48
2022/03/10 04:38:04;;;;;;;;;;;;;;;-0.15;62.10;95327.81;5136512;27;1040;-48
2022/03/10 04:40:31;;;;;;;;;;;;;;;-0.22;61.94;95329.97;5136315;27;988;-48
2022/03/10 04:42:58;;;;;;;;;;;;;;;-0.26;62.39;95336.34;5135114;27;1048;-48
2022/03/10 04:45:24;;;;;;;;;;;;;;;-0.40;62.64;95344.16;5136324;27;1031;-48
2022/03/10 04:47:50;;;;;;;;;;;;;;;-0.33;62.52;95353.38;5134849;27;1037;-48
2022/03/10 04:50:16;;;;;;;;;;;;;;;-0.31;62.08;95356.78;5136004;27;1012;-48
2022/03/10 04:52:42;;;;;;;;;;;;;;;-0.43;61.97;95353.09;5116261;27;1196;-48
2022/03/10 04:55:10;;;;;;;;;;;;;;;-0.33;61.17;95358.66;5115172;28;1906;-48
2022/03/10 04:57:36;;;;;;;;;;;;;;;-0.29;61.24;95362.78;5115766;28;1043;-48
2022/03/10 05:00:10;;;;;;;;;;;;;;;-0.30;60.19;95363.72;5115104;28;961;-47
2022/03/10 05:02:39;;;;;;;;;;;;;;;-0.35;61.19;95368.41;5115289;28;949;-48
2022/03/10 05:05:06;;;;;;;;;;;;;;;-0.32;60.28;95370.00;5115192;28;1043;-48
2022/03/10 05:07:32;;;;;;;;;;;;;;;-0.42;60.07;95381.06;5115298;28;1083;-48
2022/03/10 05:09:58;;;;;;;;;;;;;;;-0.27;59.49;95381.94;5114965;28;1087;-48
2022/03/10 05:12:25;;;;;;;;;;;;;;;-0.25;58.90;95385.34;5115022;28;1044;-48
2022/03/10 05:14:51;;;;;;;;;;;;;;;-0.29;58.79;95389.06;5114540;28;1906;-48
2022/03/10 05:17:17;;;;;;;;;;;;;;;-0.25;58.86;95385.34;5115333;28;1035;-48
2022/03/10 05:19:43;;;;;;;;;;;;;;;-0.32;58.56;95398.91;5115198;27;1079;-48
2022/03/10 05:22:09;;;;;;;;;;;;;;;-0.14;58.41;95407.50;5114913;28;1075;-48
2022/03/10 05:24:35;;;;;;;;;;;;;;;0.05;57.86;95418.63;5115051;28;1020;-48
2022/03/10 05:27:01;;;;;;;;;;;;;;;0.21;57.68;95417.72;5113530;28;1059;-48
2022/03/10 05:29:28;;;;;;;;;;;;;;;0.25;57.38;95413.94;5114698;28;1024;-48
2022/03/10 05:31:54;;;;;;;;;;;;;;;0.29;56.14;95420.75;5114811;28;996;-48
2022/03/10 05:34:20;;;;;;;;;;;;;;;0.12;57.33;95417.31;5115137;28;1044;-48
2022/03/10 05:36:46;;;;;;;;;;;;;;;0.14;56.39;95412.81;5114389;28;1937;-48
2022/03/10 05:39:12;;;;;;;;;;;;;;;0.06;56.61;95417.69;5114787;28;933;-48
2022/03/10 05:41:38;;;;;;;;;;;;;;;0.11;56.03;95426.13;5114739;28;1039;-48
2022/03/10 05:44:04;;;;;;;;;;;;;;;0.13;55.95;95432.19;5114327;28;967;-49
2022/03/10 05:46:30;;;;;;;;;;;;;;;0.15;55.55;95430.31;5114581;28;976;-48
2022/03/10 05:48:56;;;;;;;;;;;;;;;0.21;55.46;95428.22;5114604;28;964;-48
2022/03/10 05:51:23;;;;;;;;;;;;;;;0.41;55.37;95440.19;5122741;27;1208;-48
2022/03/10 05:53:49;;;;;;;;;;;;;;;0.45;55.39;95433.81;5134865;27;1062;-48
2022/03/10 05:56:16;;;;;;;;;;;;;;;0.61;55.61;95431.94;5134585;27;1918;-49
2022/03/10 05:58:42;;;;;;;;;;;;;;;0.85;54.39;95445.38;5134907;27;1024;-49
2022/03/10 06:01:08;;;;;;;;;;;;;;;1.08;54.20;95443.97;5134481;27;1031;-49
2022/03/10 06:03:34;;;;;;;;;;;;;;;1.28;53.56;95447.94;5135058;27;977;-49
2022/03/10 06:06:00;;;;;;;;;;;;;;;1.40;53.59;95450.75;5134631;27;987;-49
2022/03/10 06:08:26;;;;;;;;;;;;;;;1.54;52.88;95461.25;5134728;27;1028;-48
2022/03/10 06:10:52;;;;;;;;;;;;;;;1.78;51.98;95457.97;5134416;27;1094;-48
2022/03/10 06:13:18;;;;;;;;;;;;;;;2.12;51.29;95459.22;5133418;27;1316;-49
2022/03/10 06:15:45;;;;;;;;;;;;;;;2.18;51.20;95460.63;5134450;27;1909;-49
2022/03/10 06:18:12;;;;;;;;;;;;;;;2.62;50.62;95462.03;5134838;27;975;-48
2022/03/10 06:20:38;;;;;;;;;;;;;;;2.89;49.62;95470.69;5134642;27;1033;-48
2022/03/10 06:23:04;;;;;;;;;;;;;;;2.96;48.77;95470.28;5134262;27;1086;-47
2022/03/10 06:25:30;;;;;;;;;;;;;;;5.28;44.15;95477.75;5133607;27;984;-49
2022/03/10 06:27:56;;;;;;;;;;;;;;;4.91;44.25;95474.47;5134134;27;1043;-48
2022/03/10 06:30:22;;;;;;;;;;;;;;;4.50;43.80;95482.00;5134378;27;1107;-48
2022/03/10 06:32:49;;;;;;;;;;;;;;;3.85;45.02;95483.28;5133124;27;1041;-48
2022/03/10 06:35:15;;;;;;;;;;;;;;;4.32;44.97;95483.38;5133048;27;1992;-48
2022/03/10 06:37:41;;;;;;;;;;;;;;;3.97;45.08;95494.78;5134138;28;1032;-48
2022/03/10 06:40:08;;;;;;;;;;;;;;;2.91;44.75;95499.66;5134218;27;1047;-49
2022/03/10 06:42:34;;;;;;;;;;;;;;;2.15;46.88;95501.25;5132634;28;1019;-48
2022/03/10 06:45:01;;;;;;;;;;;;;;;2.31;47.81;95499.25;5132887;28;1080;-48
2022/03/10 06:47:27;;;;;;;;;;;;;;;2.37;47.51;95508.56;5134132;27;1039;-48
2022/03/10 06:49:53;;;;;;;;;;;;;;;2.52;46.71;95509.34;5134495;28;932;-49
2022/03/10 06:52:20;;;;;;;;;;;;;;;2.60;47.22;95514.09;5116477;28;1216;-49
2022/03/10 06:54:46;;;;;;;;;;;;;;;2.24;47.84;95519.09;5113584;28;1114;-49
2022/03/10 06:57:13;;;;;;;;;;;;;;;2.47;47.21;95519.38;5113542;28;1901;-48
2022/03/10 06:59:39;;;;;;;;;;;;;;;3.00;47.38;95522.81;5113417;28;1059;-49
2022/03/10 07:02:05;;;;;;;;;;;;;;;6.12;40.75;95532.22;5095515;28;969;-49
2022/03/10 07:04:32;;;;;;;;;;;;;;;7.02;37.75;95527.38;5113498;28;1127;-49
2022/03/10 07:06:58;;;;;;;;;;;;;;;6.33;39.73;95533.09;5113538;28;1049;-48
2022/03/10 07:09:24;;;;;;;;;;;;;;;5.85;39.53;95530.78;5113502;28;955;-49
2022/03/10 07:11:50;;;;;;;;;;;;;;;5.67;40.70;95538.38;5113230;28;1033;-48
2022/03/10 07:14:17;;;;;;;;;;;;;;;5.73;40.08;95540.56;5113380;28;1087;-49
2022/03/10 07:16:43;;;;;;;;;;;;;;;7.59;37.95;95538.44;5113426;28;1913;-48
2022/03/10 07:19:10;;;;;;;;;;;;;;;10.52;32.92;95554.22;5113375;28;1118;-48
2022/03/10 07:21:39;;;;;;;;;;;;;;;13.86;28.00;95543.41;5113692;28;969;-49
2022/03/10 07:24:06;;;;;;;;;;;;;;;16.97;24.09;95549.97;5113130;28;997;-49
2022/03/10 07:26:32;;;;;;;;;;;;;;;15.58;24.99;95547.81;5117114;28;1115;-48
2022/03/10 07:28:59;;;;;;;;;;;;;;;16.89;23.14;95553.63;5116887;28;1083;-49
2022/03/10 07:31:26;;;;;;;;;;;;;;;17.51;22.70;95554.03;5117521;28;967;-49
2022/03/10 07:33:52;;;;;;;;;;;;;;;17.33;22.36;95558.03;5116789;28;1103;-48
2022/03/10 07:36:18;;;;;;;;;;;;;;;16.61;22.82;95545.38;5117112;28;1899;-49
2022/03/10 07:38:44;;;;;;;;;;;;;;;15.95;23.73;95558.78;5116762;28;1055;-49
2022/03/10 07:41:10;;;;;;;;;;;;;;;15.12;23.80;95557.78;5116934;28;1838;-49
2022/03/10 07:43:36;;;;;;;;;;;;;;;14.79;24.69;95558.84;5116671;28;960;-48
2022/03/10 07:46:06;;;;;;;;;;;;;;;13.84;25.55;95553.50;5117014;28;1035;-48
2022/03/10 07:48:33;;;;;;;;;;;;;;;13.35;26.29;95550.88;5116918;28;981;-48
2022/03/10 07:50:59;;;;;;;;;;;;;;;13.99;25.01;95553.63;5120577;27;1224;-48
2022/03/10 07:53:25;;;;;;;;;;;;;;;14.82;24.23;95560.38;5135943;27;936;-48
2022/03/10 07:55:55;;;;;;;;;;;;;;;16.30;22.58;95549.13;5137289;27;1906;-47
2022/03/10 07:58:23;;;;;;;;;;;;;;;16.76;22.23;95548.03;5137312;27;1043;-48
2022/03/10 08:00:54;;;;;;;;;;;;;;;18.36;20.66;95548.63;5137116;27;1082;-49
2022/03/10 08:03:21;;;;;;;;;;;;;;;18.58;20.06;95542.09;5137163;27;987;-51
2022/03/10 08:05:47;;;;;;;;;;;;;;;19.66;19.06;95544.06;5137288;27;1035;-49
2022/03/10 08:08:13;;;;;;;;;;;;;;;19.73;19.39;95547.66;5135660;27;977;-49
2022/03/10 08:10:40;;;;;;;;;;;;;;;19.40;19.20;95548.41;5136903;27;969;-49
2022/03/10 08:13:06;;;;;;;;;;;;;;;19.18;19.37;95536.06;5136714;27;1043;-49
2022/03/10 08:15:32;;;;;;;;;;;;;;;19.73;19.17;95538.66;5136751;27;1905;-49
2022/03/10 08:17:58;;;;;;;;;;;;;;;20.06;18.01;95539.47;5136593;27;1047;-50
2022/03/10 08:20:24;;;;;;;;;;;;;;;19.48;17.78;95540.09;5135641;27;1032;-49
2022/03/10 08:22:50;;;;;;;;;;;;;;;20.87;17.11;95537.41;5136441;27;1075;-50
2022/03/10 08:25:17;;;;;;;;;;;;;;;22.57;15.92;95552.03;5136932;27;968;-50
2022/03/10 08:27:45;;;;;;;;;;;;;;;23.04;14.77;95538.72;5136645;27;992;-49
2022/03/10 08:30:13;;;;;;;;;;;;;;;24.04;14.80;95534.50;5136791;27;1039;-50
2022/03/10 08:32:43;;;;;;;;;;;;;;;24.79;13.56;95543.03;5136784;27;972;-50
2022/03/10 08:35:09;;;;;;;;;;;;;;;26.27;12.77;95536.75;5136298;27;1984;-50
2022/03/10 08:37:35;;;;;;;;;;;;;;;25.83;13.55;95540.13;5135524;27;1117;-50
2022/03/10 08:40:01;;;;;;;;;;;;;;;24.61;13.90;95530.38;5136750;27;1040;-49
2022/03/10 08:42:27;;;;;;;;;;;;;;;23.45;14.22;95533.53;5136114;27;1032;-49
2022/03/10 08:44:53;;;;;;;;;;;;;;;23.75;14.86;95531.59;5136086;27;1036;-49
2022/03/10 08:47:19;;;;;;;;;;;;;;;22.39;14.59;95536.53;5136282;27;1036;-49
2022/03/10 08:49:45;;;;;;;;;;;;;;;20.62;15.46;95529.97;5135986;27;1020;-48
2022/03/10 08:52:11;;;;;;;;;;;;;;;19.24;15.99;95524.41;5119738;27;1169;-49
2022/03/10 08:54:37;;;;;;;;;;;;;;;16.59;18.52;95526.66;5115655;28;1040;-49
2022/03/10 08:57:03;;;;;;;;;;;;;;;15.00;19.59;95533.13;5115792;28;1917;-49
2022/03/10 08:59:29;;;;;;;;;;;;;;;14.07;21.02;95534.78;5115197;28;1103;-48
2022/03/10 09:01:56;;;;;;;;;;;;;;;13.51;21.52;95542.81;5114467;28;1043;-48
2022/03/10 09:04:22;;;;;;;;;;;;;;;12.08;23.47;95526.81;5115196;28;1064;-48
2022/03/10 09:06:48;;;;;;;;;;;;;;;12.55;23.91;95533.47;5114062;28;972;-48
2022/03/10 09:09:14;;;;;;;;;;;;;;;12.92;23.24;95526.84;5115129;28;1028;-48
2022/03/10 09:15:02;;;;;;;;;;;;;;;12.60;24.63;95524.94;4337241;28;1913;-47
2022/03/10 09:17:28;;;;;;;;;;;;;;;12.85;23.52;95526.66;5115098;27;1042;-48
2022/03/10 09:19:54;;;;;;;;;;;;;;;13.26;23.53;95517.75;5114801;28;1051;-48
2022/03/10 09:22:20;;;;;;;;;;;;;;;13.23;23.42;95526.19;5115279;28;981;-48
2022/03/10 09:24:46;;;;;;;;;;;;;;;12.52;24.19;95530.28;5114667;28;1028;-48
2022/03/10 09:27:12;;;;;;;;;;;;;;;12.75;23.47;95522.44;5114949;28;1035;-48
2022/03/10 09:29:38;;;;;;;;;;;;;;;12.77;23.00;95521.28;5115024;28;966;-49
2022/03/10 09:32:05;;;;;;;;;;;;;;;13.08;22.53;95526.84;5115295;28;1012;-49
2022/03/10 09:34:31;;;;;;;;;;;;;;;12.46;23.06;95523.72;5114934;28;1155;-48
2022/03/10 09:36:57;;;;;;;;;;;;;;;12.20;23.21;95524.66;5114750;28;2000;-49
2022/03/10 09:39:22;;;;;;;;;;;;;;;12.29;22.82;95528.19;5114492;28;1130;-48
2022/03/10 09:41:49;;;;;;;;;;;;;;;11.75;24.16;95530.28;5114573;28;1047;-50
2022/03/10 09:44:17;;;;;;;;;;;;;;;10.87;24.48;95531.13;5114532;28;1203;-49
2022/03/10 09:46:44;;;;;;;;;;;;;;;10.76;25.32;95518.84;5114500;28;1028;-47
2022/03/10 09:49:10;;;;;;;;;;;;;;;10.62;25.34;95522.06;5114630;28;1059;-49
2022/03/10 09:51:37;;;;;;;;;;;;;;;10.13;26.79;95523.19;5124855;27;1156;-49
2022/03/10 09:54:03;;;;;;;;;;;;;;;9.96;25.38;95535.50;5134750;27;1071;-49
2022/03/10 09:56:30;;;;;;;;;;;;;;;9.83;25.69;95520.81;5134919;27;1906;-48
2022/03/10 09:58:56;;;;;;;;;;;;;;;9.90;26.76;95527.22;5134921;27;969;-49
2022/03/10 10:01:22;;;;;;;;;;;;;;;9.49;27.05;95524.88;5135145;27;1031;-48
2022/03/10 10:03:48;;;;;;;;;;;;;;;9.22;27.64;95524.78;5134837;27;1010;-48
2022/03/10 10:06:14;;;;;;;;;;;;;;;9.47;27.91;95520.66;5134979;27;1012;-48
2022/03/10 10:08:41;;;;;;;;;;;;;;;9.40;27.37;95522.22;5134815;27;1003;-48
2022/03/10 10:11:08;;;;;;;;;;;;;;;9.00;28.63;95513.47;5134543;27;1049;-49
2022/03/10 10:13:38;;;;;;;;;;;;;;;8.93;28.28;95520.34;5134693;27;965;-49
2022/03/10 10:16:05;;;;;;;;;;;;;;;9.14;26.37;95509.50;5134010;27;1992;-48
2022/03/10 10:18:33;;;;;;;;;;;;;;;8.10;27.93;95509.19;5134700;27;1020;-49
2022/03/10 10:20:59;;;;;;;;;;;;;;;8.65;27.67;95514.03;5134178;27;1028;-48
2022/03/10 10:23:29;;;;;;;;;;;;;;;9.29;26.85;95517.91;5133515;27;972;-49
2022/03/10 10:25:55;;;;;;;;;;;;;;;9.26;27.34;95511.03;5134036;27;1087;-49
2022/03/10 10:28:27;;;;;;;;;;;;;;;9.25;27.25;95508.50;5134482;27;1019;-49
2022/03/10 10:31:03;;;;;;;;;;;;;;;9.08;26.61;95510.06;5134112;27;1078;-48
2022/03/10 10:33:31;;;;;;;;;;;;;;;8.39;26.96;95510.06;5134456;27;973;-49
2022/03/10 10:36:16;;;;;;;;;;;;;;;8.60;26.23;95506.47;5134004;27;1989;-50
2022/03/10 10:38:43;;;;;;;;;;;;;;;8.31;26.52;95515.25;5134120;28;1036;-49
2022/03/10 10:41:18;;;;;;;;;;;;;;;8.55;26.50;95509.53;5133781;27;1029;-49
2022/03/10 10:43:49;;;;;;;;;;;;;;;9.17;25.30;95507.38;5133817;28;1845;-49
2022/03/10 10:46:29;;;;;;;;;;;;;;;8.92;25.47;95505.34;5134024;27;1923;-49
2022/03/10 10:48:55;;;;;;;;;;;;;;;9.15;25.67;95508.53;5133941;27;1075;-48
2022/03/10 10:51:29;;;;;;;;;;;;;;;9.18;26.59;95503.75;5125674;27;1219;-49
2022/03/10 10:53:56;;;;;;;;;;;;;;;9.30;25.84;95512.41;5113716;28;1035;-49
2022/03/10 10:56:22;;;;;;;;;;;;;;;8.49;26.56;95506.59;5113240;28;1985;-48
2022/03/10 10:58:48;;;;;;;;;;;;;;;8.28;27.48;95504.03;5113315;28;1028;-49
2022/03/10 11:01:34;;;;;;;;;;;;;;;8.43;27.77;95500.00;5116980;28;975;-48
2022/03/10 11:04:01;;;;;;;;;;;;;;;8.27;27.32;95497.00;5117273;28;1236;-49
2022/03/10 11:06:27;;;;;;;;;;;;;;;7.98;28.77;95505.78;5117680;28;1108;-48
2022/03/10 11:08:54;;;;;;;;;;;;;;;7.74;28.59;95514.97;5117430;27;1024;-49
2022/03/10 11:11:20;;;;;;;;;;;;;;;8.04;27.54;95507.91;5117336;28;936;-49
2022/03/10 11:13:50;;;;;;;;;;;;;;;8.00;28.43;95504.66;5117423;28;1031;-49
2022/03/10 11:16:16;;;;;;;;;;;;;;;7.82;27.36;95511.66;5116978;28;1986;-49
2022/03/10 11:18:47;;;;;;;;;;;;;;;7.81;27.37;95510.78;5117177;28;1055;-49
2022/03/10 11:21:16;;;;;;;;;;;;;;;7.70;27.78;95510.91;5116127;28;1024;-49
2022/03/10 11:23:49;;;;;;;;;;;;;;;7.77;28.23;95513.88;5116250;28;1063;-49
2022/03/10 11:26:26;;;;;;;;;;;;;;;7.62;28.30;95510.72;5116873;28;1122;-48
2022/03/10 11:28:54;;;;;;;;;;;;;;;7.72;28.55;95518.72;5117080;28;1891;-48
2022/03/10 11:31:21;;;;;;;;;;;;;;;8.10;28.48;95514.50;5117156;28;1020;-49
2022/03/10 11:33:47;;;;;;;;;;;;;;;8.09;27.27;95507.50;5116957;28;1095;-49
2022/03/10 11:36:23;;;;;;;;;;;;;;;8.08;29.60;95505.81;5116787;28;1992;-50
2022/03/10 11:38:54;;;;;;;;;;;;;;;7.74;28.49;95520.31;5117033;28;1063;-48
2022/03/10 11:41:28;;;;;;;;;;;;;;;6.99;29.55;95518.81;5116618;28;1078;-48
2022/03/10 11:44:01;;;;;;;;;;;;;;;6.71;29.68;95512.31;5116602;28;1019;-49
2022/03/10 11:46:28;;;;;;;;;;;;;;;6.75;29.05;95516.38;5116623;28;1943;-49
2022/03/10 11:49:03;;;;;;;;;;;;;;;7.19;28.70;95531.25;5116799;28;1036;-49
2022/03/10 11:51:45;;;;;;;;;;;;;;;7.15;29.11;95529.84;5126180;27;1160;-49
2022/03/10 11:54:14;;;;;;;;;;;;;;;7.20;30.97;95516.97;5137457;27;1075;-48
2022/03/10 11:56:43;;;;;;;;;;;;;;;7.11;29.54;95525.72;5137060;27;1914;-48
2022/03/10 11:59:21;;;;;;;;;;;;;;;6.56;28.73;95525.06;5137099;27;1111;-47
2022/03/10 12:01:47;;;;;;;;;;;;;;;6.19;30.68;95525.44;5136912;27;1025;-47
2022/03/10 12:04:15;;;;;;;;;;;;;;;5.76;30.22;95529.69;5137339;27;1047;-47
2022/03/10 12:06:49;;;;;;;;;;;;;;;5.54;29.72;95530.56;5136708;27;1040;-47
2022/03/10 12:09:26;;;;;;;;;;;;;;;5.52;30.73;95536.94;5137226;27;1043;-47
2022/03/10 12:11:52;;;;;;;;;;;;;;;5.61;30.10;95531.75;5135050;27;1837;-47
2022/03/10 12:14:25;;;;;;;;;;;;;;;5.80;30.60;95522.34;5136940;27;1115;-48
2022/03/10 12:16:51;;;;;;;;;;;;;;;6.28;29.84;95523.81;5136744;27;2335;-47
2022/03/10 12:19:17;;;;;;;;;;;;;;;6.12;30.53;95519.78;5136949;27;1011;-47
2022/03/10 12:21:44;;;;;;;;;;;;;;;5.83;30.27;95535.38;5136811;27;1016;-47
2022/03/10 12:24:11;;;;;;;;;;;;;;;5.37;30.10;95536.34;5136844;27;956;-48
2022/03/10 12:26:39;;;;;;;;;;;;;;;5.00;30.79;95537.38;5136435;27;1007;-48
2022/03/10 12:29:08;;;;;;;;;;;;;;;4.81;31.93;95521.22;5136521;27;952;-48
2022/03/10 12:31:35;;;;;;;;;;;;;;;5.19;31.05;95536.81;5136625;27;964;-48
2022/03/10 12:34:03;;;;;;;;;;;;;;;5.32;30.78;95533.22;5136608;27;989;-49
2022/03/10 12:36:32;;;;;;;;;;;;;;;5.56;29.97;95547.22;5136310;27;1909;-48
2022/03/10 12:38:59;;;;;;;;;;;;;;;5.42;28.72;95539.47;5136220;27;1061;-49
2022/03/10 12:41:29;;;;;;;;;;;;;;;5.55;30.01;95544.66;5136014;27;925;-50
2022/03/10 12:43:55;;;;;;;;;;;;;;;5.77;30.21;95546.47;5136210;27;969;-49
2022/03/10 12:46:22;;;;;;;;;;;;;;;5.84;30.52;95550.31;5136225;27;1007;-51
2022/03/10 12:48:59;;;;;;;;;;;;;;;5.85;30.92;95536.09;5136234;27;965;-50
2022/03/10 12:51:26;;;;;;;;;;;;;;;5.98;32.22;95542.13;5127084;27;1204;-51
2022/03/10 12:53:53;;;;;;;;;;;;;;;6.07;30.97;95543.22;5115563;28;952;-51
2022/03/10 12:56:19;;;;;;;;;;;;;;;5.58;30.56;95544.44;5115336;28;1910;-50
2022/03/10 12:58:47;;;;;;;;;;;;;;;5.12;31.39;95540.88;5115249;28;913;-51
2022/03/10 13:01:13;;;;;;;;;;;;;;;5.36;31.57;95545.28;5115050;28;1229;-51
2022/03/10 13:03:49;;;;;;;;;;;;;;;5.19;32.77;95549.22;5115552;27;981;-51
2022/03/10 13:06:16;;;;;;;;;;;;;;;5.04;32.15;95548.59;5115629;28;1021;-51
2022/03/10 13:08:43;;;;;;;;;;;;;;;5.17;32.18;95545.84;5115147;28;1010;-50
2022/03/10 13:11:10;;;;;;;;;;;;;;;5.32;32.47;95539.34;5114996;28;1033;-51